createdAt,value
2023-05-04T00:00:23.252Z,238.34
2023-05-04T00:01:08.749Z,231.96
2023-05-04T00:01:53.723Z,236.93
2023-05-04T00:02:39.318Z,235.94
2023-05-04T00:03:23.999Z,214.04
2023-05-04T00:04:08.983Z,208.74
2023-05-04T00:04:53.767Z,246.89
2023-05-04T00:05:38.728Z,248.88
2023-05-04T00:06:24.497Z,264.81
2023-05-04T00:07:08.749Z,244.90
2023-05-04T00:07:54.204Z,256.84
2023-05-04T00:08:39.062Z,252.86
2023-05-04T00:09:24.179Z,246.89
2023-05-04T00:10:09.191Z,243.90
2023-05-04T00:10:54.535Z,243.90
2023-05-04T00:11:39.320Z,240.92
2023-05-04T00:12:24.131Z,257.84
2023-05-04T00:13:09.278Z,221.01
2023-05-04T00:13:54.189Z,238.92
2023-05-04T00:14:39.350Z,242.91
2023-05-04T00:15:24.588Z,239.92
2023-05-04T00:16:10.872Z,231.96
2023-05-04T00:16:54.467Z,238.92
2023-05-04T00:17:39.773Z,240.92
2023-05-04T00:18:24.891Z,212.05
2023-05-04T00:19:09.970Z,212.05
2023-05-04T00:19:55.015Z,132.40
2023-05-04T00:20:39.930Z,226.98
2023-05-04T00:21:24.808Z,223.00
2023-05-04T00:22:10.083Z,223.00
2023-05-04T00:22:54.959Z,216.03
2023-05-04T00:23:40.351Z,228.97
2023-05-04T00:24:25.347Z,228.97
2023-05-04T00:25:10.254Z,215.03
2023-05-04T00:25:55.284Z,223.99
2023-05-04T00:26:40.004Z,223.99
2023-05-04T00:27:25.186Z,230.96
2023-05-04T00:28:10.477Z,231.39
2023-05-04T00:28:55.638Z,227.97
2023-05-04T00:29:40.348Z,238.92
2023-05-04T00:30:25.478Z,238.92
2023-05-04T00:31:10.319Z,257.84
2023-05-04T00:31:55.352Z,254.85
2023-05-04T00:32:40.618Z,259.83
2023-05-04T00:33:25.611Z,260.83
2023-05-04T00:34:10.664Z,240.92
2023-05-04T00:34:55.516Z,259.83
2023-05-04T00:35:40.675Z,261.82
2023-05-04T00:36:25.524Z,255.85
2023-05-04T00:37:10.997Z,270.78
2023-05-04T00:37:56.154Z,241.91
2023-05-04T00:38:41.000Z,260.43
2023-05-04T00:39:25.978Z,249.88
2023-05-04T00:40:11.061Z,246.89
2023-05-04T00:40:56.310Z,250.87
2023-05-04T00:41:40.740Z,260.83
2023-05-04T00:42:26.287Z,247.88
2023-05-04T00:43:11.663Z,232.95
2023-05-04T00:43:56.483Z,253.86
2023-05-04T00:44:41.092Z,236.93
2023-05-04T00:45:26.315Z,241.91
2023-05-04T00:46:11.403Z,252.86
2023-05-04T00:46:56.335Z,253.86
2023-05-04T00:47:42.065Z,252.86
2023-05-04T00:48:26.409Z,249.88
2023-05-04T00:49:11.487Z,246.89
2023-05-04T00:49:56.445Z,254.85
2023-05-04T00:50:41.496Z,251.87
2023-05-04T00:51:26.761Z,248.88
2023-05-04T00:52:11.622Z,248.88
2023-05-04T00:52:56.418Z,248.88
2023-05-04T00:53:41.624Z,254.85
2023-05-04T00:54:26.828Z,263.81
2023-05-04T00:55:12.773Z,235.94
2023-05-04T00:55:56.791Z,245.89
2023-05-04T00:56:41.845Z,256.84
2023-05-04T00:57:27.010Z,263.81
2023-05-04T00:58:12.283Z,264.81
2023-05-04T00:58:57.240Z,271.78
2023-05-04T00:59:42.284Z,258.83
2023-05-04T01:00:27.137Z,258.83
2023-05-04T01:01:12.692Z,251.87
2023-05-04T01:01:57.499Z,262.82
2023-05-04T01:02:42.367Z,245.89
2023-05-04T01:03:27.431Z,239.92
2023-05-04T01:04:12.901Z,265.80
2023-05-04T01:04:57.265Z,241.91
2023-05-04T01:05:42.640Z,253.86
2023-05-04T01:06:27.049Z,249.88
2023-05-04T01:07:12.350Z,247.88
2023-05-04T01:07:57.775Z,248.88
2023-05-04T01:08:42.505Z,239.92
2023-05-04T01:09:27.532Z,235.94
2023-05-04T01:10:13.371Z,230.40
2023-05-04T01:10:57.926Z,228.97
2023-05-04T01:11:43.341Z,249.88
2023-05-04T01:12:28.156Z,247.88
2023-05-04T01:13:12.813Z,237.93
2023-05-04T01:13:58.660Z,236.93
2023-05-04T01:14:42.713Z,231.96
2023-05-04T01:15:27.917Z,219.01
2023-05-04T01:16:13.791Z,219.01
2023-05-04T01:16:58.631Z,219.01
2023-05-04T01:17:43.805Z,219.01
2023-05-04T01:18:28.692Z,219.01
2023-05-04T01:19:14.003Z,219.01
2023-05-04T01:19:58.924Z,219.01
2023-05-04T01:20:43.764Z,219.01
2023-05-04T01:21:29.377Z,219.01
2023-05-04T01:22:13.675Z,219.01
2023-05-04T01:22:58.729Z,219.01
2023-05-04T01:23:44.219Z,219.01
2023-05-04T01:24:29.097Z,219.01
2023-05-04T01:25:13.924Z,219.01
2023-05-04T01:25:59.179Z,219.01
2023-05-04T01:26:43.966Z,219.01
2023-05-04T01:27:29.311Z,219.01
2023-05-04T01:28:14.783Z,219.01
2023-05-04T01:28:59.328Z,219.01
2023-05-04T01:29:44.541Z,219.01
2023-05-04T01:30:29.268Z,219.01
2023-05-04T01:31:14.714Z,219.01
2023-05-04T01:31:59.714Z,219.01
2023-05-04T01:32:44.439Z,219.01
2023-05-04T01:33:29.621Z,219.01
2023-05-04T01:34:14.745Z,219.01
2023-05-04T01:34:59.635Z,219.01
2023-05-04T01:35:44.709Z,219.01
2023-05-04T01:36:30.063Z,219.01
2023-05-04T01:37:15.361Z,219.01
2023-05-04T01:37:59.770Z,219.01
2023-05-04T01:38:45.170Z,219.01
2023-05-04T01:39:29.561Z,208.06
2023-05-04T01:40:15.287Z,208.06
2023-05-04T01:40:59.976Z,208.06
2023-05-04T01:41:45.659Z,208.06
2023-05-04T01:42:30.390Z,208.06
2023-05-04T01:43:15.572Z,208.06
2023-05-04T01:44:00.847Z,208.06
2023-05-04T01:44:45.071Z,208.06
2023-05-04T01:45:30.837Z,208.06
2023-05-04T01:46:16.303Z,223.00
2023-05-04T01:47:00.525Z,215.03
2023-05-04T01:47:45.725Z,215.03
2023-05-04T01:48:30.641Z,215.03
2023-05-04T01:49:16.171Z,215.03
2023-05-04T01:50:01.049Z,215.03
2023-05-04T01:50:45.809Z,215.03
2023-05-04T01:51:30.995Z,215.03
2023-05-04T01:52:16.253Z,215.03
2023-05-04T01:53:01.407Z,215.03
2023-05-04T01:53:46.039Z,215.03
2023-05-04T01:54:31.489Z,215.03
2023-05-04T01:55:16.307Z,213.04
2023-05-04T01:56:00.801Z,226.98
2023-05-04T01:56:46.256Z,226.98
2023-05-04T01:57:31.588Z,226.98
2023-05-04T01:58:16.581Z,226.98
2023-05-04T01:59:01.660Z,226.98
2023-05-04T01:59:46.691Z,226.98
2023-05-04T02:00:31.702Z,226.98
2023-05-04T02:01:17.390Z,226.98
2023-05-04T02:02:01.747Z,226.98
2023-05-04T02:02:46.918Z,226.98
2023-05-04T02:03:31.920Z,226.98
2023-05-04T02:04:16.848Z,226.98
2023-05-04T02:05:01.484Z,226.98
2023-05-04T02:05:46.733Z,226.98
2023-05-04T02:06:31.807Z,226.98
2023-05-04T02:07:17.059Z,226.98
2023-05-04T02:08:02.002Z,226.98
2023-05-04T02:08:47.299Z,226.98
2023-05-04T02:09:32.041Z,226.98
2023-05-04T02:10:17.081Z,226.98
2023-05-04T02:11:02.038Z,226.98
2023-05-04T02:11:47.329Z,226.98
2023-05-04T02:12:32.351Z,226.98
2023-05-04T02:13:17.679Z,226.98
2023-05-04T02:14:02.468Z,226.98
2023-05-04T02:14:47.512Z,226.98
2023-05-04T02:15:32.597Z,226.98
2023-05-04T02:16:17.571Z,226.98
2023-05-04T02:17:02.766Z,226.98
2023-05-04T02:17:47.636Z,226.98
2023-05-04T02:18:32.747Z,226.98
2023-05-04T02:19:17.687Z,226.98
2023-05-04T02:20:02.795Z,226.98
2023-05-04T02:20:47.720Z,226.98
2023-05-04T02:21:32.920Z,226.98
2023-05-04T02:22:17.769Z,226.98
2023-05-04T02:23:03.783Z,226.98
2023-05-04T02:23:47.777Z,226.98
2023-05-04T02:24:33.052Z,226.98
2023-05-04T02:25:18.162Z,226.98
2023-05-04T02:26:03.286Z,226.98
2023-05-04T02:26:48.394Z,226.98
2023-05-04T02:27:33.379Z,226.98
2023-05-04T02:28:18.332Z,226.98
2023-05-04T02:29:03.541Z,226.98
2023-05-04T02:29:48.823Z,226.98
2023-05-04T02:30:33.313Z,226.98
2023-05-04T02:31:18.394Z,226.98
2023-05-04T02:32:03.657Z,226.98
2023-05-04T02:32:48.774Z,226.98
2023-05-04T02:33:33.315Z,226.98
2023-05-04T02:34:18.544Z,226.98
2023-05-04T02:35:03.724Z,226.98
2023-05-04T02:35:48.472Z,226.98
2023-05-04T02:36:33.625Z,226.98
2023-05-04T02:37:19.317Z,226.98
2023-05-04T02:38:04.057Z,226.98
2023-05-04T02:38:48.611Z,226.98
2023-05-04T02:39:33.760Z,226.98
2023-05-04T02:40:19.079Z,226.98
2023-05-04T02:41:04.019Z,226.98
2023-05-04T02:41:49.035Z,226.98
2023-05-04T02:42:34.109Z,226.98
2023-05-04T02:43:19.042Z,226.98
2023-05-04T02:44:04.105Z,226.98
2023-05-04T02:44:49.264Z,226.98
2023-05-04T02:45:34.443Z,226.98
2023-05-04T02:46:19.652Z,226.98
2023-05-04T02:47:05.262Z,226.98
2023-05-04T02:47:50.486Z,226.98
2023-05-04T02:48:34.763Z,226.98
2023-05-04T02:49:19.835Z,226.98
2023-05-04T02:50:05.116Z,226.98
2023-05-04T02:50:49.550Z,226.98
2023-05-04T02:51:34.883Z,226.98
2023-05-04T02:52:20.256Z,226.98
2023-05-04T02:53:05.033Z,226.98
2023-05-04T02:53:49.837Z,226.98
2023-05-04T02:54:35.329Z,226.98
2023-05-04T02:55:20.970Z,226.98
2023-05-04T02:56:05.338Z,226.98
2023-05-04T02:56:50.524Z,226.98
2023-05-04T02:57:35.276Z,226.98
2023-05-04T02:58:21.356Z,226.98
2023-05-04T02:59:05.291Z,226.98
2023-05-04T02:59:50.409Z,226.98
2023-05-04T03:00:35.255Z,214.04
2023-05-04T03:01:20.880Z,214.04
2023-05-04T03:02:05.376Z,214.04
2023-05-04T03:02:50.913Z,214.04
2023-05-04T03:03:36.222Z,214.04
2023-05-04T03:04:20.750Z,214.04
2023-05-04T03:05:06.044Z,214.04
2023-05-04T03:05:50.495Z,208.55
2023-05-04T03:06:36.005Z,218.02
2023-05-04T03:07:21.883Z,218.02
2023-05-04T03:08:05.705Z,219.01
2023-05-04T03:08:50.773Z,231.96
2023-05-04T03:09:35.477Z,246.89
2023-05-04T03:10:20.845Z,232.95
2023-05-04T03:11:05.935Z,229.96
2023-05-04T03:11:50.951Z,225.98
2023-05-04T03:12:36.257Z,207.07
2023-05-04T03:13:21.620Z,207.07
2023-05-04T03:14:06.126Z,202.09
2023-05-04T03:14:51.011Z,224.99
2023-05-04T03:15:37.193Z,224.99
2023-05-04T03:16:21.302Z,219.01
2023-05-04T03:17:06.610Z,219.01
2023-05-04T03:17:51.620Z,219.01
2023-05-04T03:18:37.255Z,244.90
2023-05-04T03:19:21.682Z,223.00
2023-05-04T03:20:06.694Z,233.38
2023-05-04T03:20:51.595Z,242.91
2023-05-04T03:21:36.518Z,233.95
2023-05-04T03:22:22.037Z,217.02
2023-05-04T03:23:06.609Z,229.96
2023-05-04T03:23:52.267Z,226.98
2023-05-04T03:24:36.948Z,222.00
2023-05-04T03:25:21.954Z,240.92
2023-05-04T03:26:07.056Z,238.92
2023-05-04T03:26:52.150Z,238.92
2023-05-04T03:27:37.070Z,222.00
2023-05-04T03:28:21.998Z,226.98
2023-05-04T03:29:07.544Z,226.98
2023-05-04T03:29:52.062Z,205.08
2023-05-04T03:30:37.196Z,199.61
2023-05-04T03:31:22.401Z,199.61
2023-05-04T03:32:07.814Z,199.61
2023-05-04T03:32:52.831Z,199.61
2023-05-04T03:33:37.215Z,244.90
2023-05-04T03:34:22.382Z,243.73
2023-05-04T03:35:07.543Z,234.78
2023-05-04T03:35:52.593Z,228.81
2023-05-04T03:36:37.434Z,228.81
2023-05-04T03:37:22.858Z,220.85
2023-05-04T03:38:08.130Z,224.83
2023-05-04T03:38:52.505Z,237.76
2023-05-04T03:39:37.931Z,243.73
2023-05-04T03:40:23.153Z,231.79
2023-05-04T03:41:07.791Z,250.70
2023-05-04T03:41:53.589Z,231.79
2023-05-04T03:42:38.072Z,238.76
2023-05-04T03:43:22.894Z,231.79
2023-05-04T03:44:07.868Z,241.74
2023-05-04T03:44:53.061Z,248.70
2023-05-04T03:45:37.933Z,231.79
2023-05-04T03:46:23.958Z,251.69
2023-05-04T03:47:08.132Z,247.71
2023-05-04T03:47:53.302Z,234.78
2023-05-04T03:48:38.366Z,240.74
2023-05-04T03:49:23.505Z,230.80
2023-05-04T03:50:08.268Z,243.73
2023-05-04T03:50:53.316Z,236.77
2023-05-04T03:51:38.904Z,214.88
2023-05-04T03:52:23.563Z,225.82
2023-05-04T03:53:08.754Z,242.73
2023-05-04T03:53:53.738Z,230.80
2023-05-04T03:54:39.086Z,246.71
2023-05-04T03:55:24.268Z,253.68
2023-05-04T03:56:08.847Z,243.73
2023-05-04T03:56:53.662Z,233.78
2023-05-04T03:57:38.715Z,248.70
2023-05-04T03:58:23.734Z,253.68
2023-05-04T03:59:08.726Z,268.60
2023-05-04T03:59:55.572Z,269.59
2023-05-04T04:00:39.055Z,263.63
2023-05-04T04:01:24.211Z,278.55
2023-05-04T04:02:09.384Z,263.63
2023-05-04T04:02:54.746Z,257.66
2023-05-04T04:03:39.346Z,241.74
2023-05-04T04:04:24.530Z,259.65
2023-05-04T04:05:10.161Z,259.65
2023-05-04T04:05:54.344Z,253.68
2023-05-04T04:06:40.524Z,267.60
2023-05-04T04:07:24.349Z,243.73
2023-05-04T04:08:09.684Z,240.74
2023-05-04T04:08:54.476Z,240.74
2023-05-04T04:09:39.549Z,228.81
2023-05-04T04:10:24.792Z,223.83
2023-05-04T04:11:09.898Z,227.81
2023-05-04T04:11:54.611Z,226.82
2023-05-04T04:12:40.280Z,238.76
2023-05-04T04:13:25.117Z,238.76
2023-05-04T04:14:09.967Z,229.80
2023-05-04T04:14:55.163Z,211.90
2023-05-04T04:15:39.762Z,214.88
2023-05-04T04:16:24.965Z,238.76
2023-05-04T04:17:09.981Z,210.90
2023-05-04T04:17:55.595Z,210.90
2023-05-04T04:18:40.225Z,226.82
2023-05-04T04:19:25.163Z,226.82
2023-05-04T04:20:10.826Z,213.88
2023-05-04T04:20:55.074Z,228.81
2023-05-04T04:21:40.213Z,213.88
2023-05-04T04:22:25.479Z,221.84
2023-05-04T04:23:10.226Z,222.84
2023-05-04T04:23:55.876Z,222.84
2023-05-04T04:24:40.736Z,221.84
2023-05-04T04:25:25.707Z,233.78
2023-05-04T04:26:10.756Z,233.78
2023-05-04T04:26:55.741Z,235.77
2023-05-04T04:27:40.778Z,230.80
2023-05-04T04:28:25.725Z,238.76
2023-05-04T04:29:10.534Z,250.69
2023-05-04T04:29:56.295Z,234.78
2023-05-04T04:30:40.904Z,241.74
2023-05-04T04:31:26.242Z,248.70
2023-05-04T04:32:11.045Z,234.78
2023-05-04T04:32:56.563Z,237.76
2023-05-04T04:33:41.113Z,236.77
2023-05-04T04:34:26.149Z,237.76
2023-05-04T04:35:11.375Z,234.78
2023-05-04T04:35:56.329Z,222.84
2023-05-04T04:36:41.038Z,223.83
2023-05-04T04:37:26.144Z,232.79
2023-05-04T04:38:11.875Z,232.79
2023-05-04T04:38:56.617Z,234.78
2023-05-04T04:39:41.795Z,213.88
2023-05-04T04:40:26.832Z,213.88
2023-05-04T04:41:12.030Z,222.84
2023-05-04T04:41:56.964Z,236.77
2023-05-04T04:42:41.447Z,224.83
2023-05-04T04:43:26.936Z,231.79
2023-05-04T04:44:11.291Z,223.83
2023-05-04T04:44:56.566Z,233.78
2023-05-04T04:45:41.777Z,223.83
2023-05-04T04:46:26.607Z,227.81
2023-05-04T04:47:12.046Z,227.81
2023-05-04T04:47:56.833Z,237.93
2023-05-04T04:48:41.981Z,232.79
2023-05-04T04:49:27.037Z,219.85
2023-05-04T04:50:14.125Z,240.74
2023-05-04T04:50:57.326Z,231.79
2023-05-04T04:51:42.375Z,207.92
2023-05-04T04:52:27.320Z,207.92
2023-05-04T04:53:12.285Z,217.86
2023-05-04T04:53:57.951Z,217.86
2023-05-04T04:54:42.703Z,221.84
2023-05-04T04:55:28.173Z,221.84
2023-05-04T04:56:12.793Z,223.00
2023-05-04T04:56:57.556Z,216.87
2023-05-04T04:57:42.958Z,229.80
2023-05-04T04:58:28.017Z,231.79
2023-05-04T04:59:13.154Z,231.79
2023-05-04T04:59:58.057Z,228.81
2023-05-04T05:00:42.875Z,247.71
2023-05-04T05:01:27.864Z,226.82
2023-05-04T05:02:12.825Z,241.74
2023-05-04T05:02:58.579Z,241.74
2023-05-04T05:03:43.378Z,219.01
2023-05-04T05:04:28.188Z,240.74
2023-05-04T05:05:13.389Z,231.79
2023-05-04T05:05:58.242Z,243.73
2023-05-04T05:06:43.305Z,219.85
2023-05-04T05:07:28.455Z,248.70
2023-05-04T05:08:13.355Z,250.69
2023-05-04T05:08:58.578Z,241.74
2023-05-04T05:09:43.528Z,237.76
2023-05-04T05:10:28.475Z,246.71
2023-05-04T05:11:13.619Z,248.70
2023-05-04T05:11:58.869Z,257.66
2023-05-04T05:12:43.573Z,239.75
2023-05-04T05:13:28.888Z,208.91
2023-05-04T05:14:13.451Z,223.83
2023-05-04T05:14:58.817Z,228.81
2023-05-04T05:15:43.764Z,248.70
2023-05-04T05:16:28.888Z,236.77
2023-05-04T05:17:13.980Z,239.75
2023-05-04T05:17:58.959Z,226.82
2023-05-04T05:18:43.997Z,225.82
2023-05-04T05:19:29.081Z,228.97
2023-05-04T05:20:14.261Z,227.97
2023-05-04T05:20:59.169Z,227.97
2023-05-04T05:21:44.015Z,197.11
2023-05-04T05:22:29.286Z,220.01
2023-05-04T05:23:14.546Z,200.10
2023-05-04T05:23:59.701Z,200.10
2023-05-04T05:24:44.562Z,214.04
2023-05-04T05:25:29.841Z,245.89
2023-05-04T05:26:14.673Z,240.92
2023-05-04T05:26:59.622Z,241.91
2023-05-04T05:27:44.930Z,253.86
2023-05-04T05:28:29.740Z,256.84
2023-05-04T05:29:15.221Z,241.91
2023-05-04T05:29:59.945Z,233.95
2023-05-04T05:30:44.976Z,245.89
2023-05-04T05:31:30.210Z,238.92
2023-05-04T05:32:15.242Z,244.90
2023-05-04T05:33:00.136Z,244.90
2023-05-04T05:33:45.298Z,247.88
2023-05-04T05:34:30.090Z,233.95
2023-05-04T05:35:16.280Z,229.96
2023-05-04T05:36:00.573Z,245.89
2023-05-04T05:36:45.186Z,242.91
2023-05-04T05:37:30.753Z,227.97
2023-05-04T05:38:15.899Z,229.96
2023-05-04T05:39:01.044Z,229.96
2023-05-04T05:39:45.597Z,247.88
2023-05-04T05:40:30.737Z,250.87
2023-05-04T05:41:16.310Z,253.86
2023-05-04T05:42:01.162Z,269.79
2023-05-04T05:42:45.811Z,264.81
2023-05-04T05:43:30.928Z,256.84
2023-05-04T05:44:16.187Z,250.87
2023-05-04T05:45:00.775Z,252.86
2023-05-04T05:45:45.872Z,253.86
2023-05-04T05:46:31.393Z,256.84
2023-05-04T05:47:16.179Z,258.83
2023-05-04T05:48:00.922Z,275.76
2023-05-04T05:48:46.571Z,248.88
2023-05-04T05:49:31.211Z,267.79
2023-05-04T05:50:16.472Z,252.86
2023-05-04T05:51:01.301Z,249.88
2023-05-04T05:51:46.294Z,247.88
2023-05-04T05:52:31.021Z,250.87
2023-05-04T05:53:16.808Z,252.86
2023-05-04T05:54:01.460Z,248.88
2023-05-04T05:54:46.501Z,252.86
2023-05-04T05:55:31.658Z,240.92
2023-05-04T05:56:17.541Z,233.95
2023-05-04T05:57:01.811Z,247.88
2023-05-04T05:57:46.840Z,226.98
2023-05-04T05:58:31.796Z,235.94
2023-05-04T05:59:16.886Z,250.87
2023-05-04T06:00:01.710Z,249.88
2023-05-04T06:00:46.956Z,244.90
2023-05-04T06:01:31.856Z,259.83
2023-05-04T06:02:17.520Z,247.88
2023-05-04T06:03:02.074Z,245.89
2023-05-04T06:03:47.778Z,234.94
2023-05-04T06:04:32.235Z,221.01
2023-05-04T06:05:17.188Z,227.97
2023-05-04T06:06:02.243Z,231.96
2023-05-04T06:06:47.201Z,238.92
2023-05-04T06:07:32.768Z,221.01
2023-05-04T06:08:17.719Z,251.87
2023-05-04T06:09:02.695Z,231.96
2023-05-04T06:09:48.021Z,235.94
2023-05-04T06:10:32.892Z,232.95
2023-05-04T06:11:17.887Z,226.98
2023-05-04T06:12:02.993Z,219.01
2023-05-04T06:12:48.097Z,237.93
2023-05-04T06:13:33.031Z,242.91
2023-05-04T06:14:18.274Z,258.83
2023-05-04T06:15:03.555Z,233.95
2023-05-04T06:15:48.553Z,237.93
2023-05-04T06:16:33.305Z,244.90
2023-05-04T06:17:18.549Z,237.93
2023-05-04T06:18:03.297Z,229.96
2023-05-04T06:18:48.639Z,234.94
2023-05-04T06:19:33.566Z,227.97
2023-05-04T06:20:19.061Z,218.02
2023-05-04T06:21:03.477Z,238.92
2023-05-04T06:21:48.635Z,240.92
2023-05-04T06:22:34.006Z,231.96
2023-05-04T06:23:19.191Z,225.98
2023-05-04T06:24:03.668Z,209.06
2023-05-04T06:24:49.187Z,209.06
2023-05-04T06:25:34.635Z,209.06
2023-05-04T06:26:19.175Z,209.06
2023-05-04T06:27:03.930Z,209.06
2023-05-04T06:27:49.744Z,209.06
2023-05-04T06:28:34.660Z,209.06
2023-05-04T06:29:19.197Z,209.06
2023-05-04T06:30:04.540Z,209.06
2023-05-04T06:30:49.225Z,209.06
2023-05-04T06:31:34.499Z,209.06
2023-05-04T06:32:19.718Z,209.06
2023-05-04T06:33:04.822Z,209.06
2023-05-04T06:33:49.127Z,132.08
2023-05-04T06:34:34.700Z,132.08
2023-05-04T06:35:19.366Z,198.11
2023-05-04T06:36:04.204Z,205.08
2023-05-04T06:36:49.557Z,192.14
2023-05-04T06:37:35.057Z,192.14
2023-05-04T06:38:19.676Z,192.14
2023-05-04T06:39:04.929Z,192.14
2023-05-04T06:39:50.123Z,192.14
2023-05-04T06:40:34.558Z,192.14
2023-05-04T06:41:20.215Z,183.18
2023-05-04T06:42:05.009Z,183.18
2023-05-04T06:42:49.808Z,181.18
2023-05-04T06:43:35.187Z,181.18
2023-05-04T06:44:19.521Z,167.13
2023-05-04T06:45:04.992Z,183.05
2023-05-04T06:45:50.092Z,184.04
2023-05-04T06:46:35.624Z,173.10
2023-05-04T06:47:20.997Z,173.10
2023-05-04T06:48:06.161Z,173.10
2023-05-04T06:48:52.839Z,173.10
2023-05-04T06:49:36.143Z,173.10
2023-05-04T06:50:21.038Z,173.10
2023-05-04T06:51:05.634Z,173.10
2023-05-04T06:51:51.265Z,173.10
2023-05-04T06:52:35.869Z,173.10
2023-05-04T06:53:21.133Z,173.10
2023-05-04T06:54:05.653Z,173.10
2023-05-04T06:54:52.451Z,173.10
2023-05-04T06:55:37.345Z,173.10
2023-05-04T06:56:22.840Z,88.12
2023-05-04T06:57:06.299Z,88.12
2023-05-04T06:57:51.148Z,158.18
2023-05-04T06:58:36.190Z,172.10
2023-05-04T06:59:20.779Z,179.07
2023-05-04T07:00:06.597Z,192.00
2023-05-04T07:00:52.045Z,192.00
2023-05-04T07:01:36.431Z,203.94
2023-05-04T07:02:22.006Z,203.94
2023-05-04T07:03:06.829Z,203.94
2023-05-04T07:03:51.420Z,141.26
2023-05-04T07:04:36.611Z,173.10
2023-05-04T07:05:21.661Z,183.05
2023-05-04T07:06:06.792Z,180.06
2023-05-04T07:06:52.086Z,202.94
2023-05-04T07:07:36.877Z,205.93
2023-05-04T07:08:22.307Z,203.94
2023-05-04T07:09:07.223Z,178.07
2023-05-04T07:09:52.356Z,178.07
2023-05-04T07:10:36.894Z,153.20
2023-05-04T07:11:21.930Z,200.95
2023-05-04T07:12:06.807Z,191.00
2023-05-04T07:12:52.354Z,213.88
2023-05-04T07:13:37.053Z,192.99
2023-05-04T07:14:22.790Z,229.62
2023-05-04T07:15:07.560Z,201.95
2023-05-04T07:15:52.528Z,208.91
2023-05-04T07:16:37.315Z,203.94
2023-05-04T07:17:22.877Z,203.94
2023-05-04T07:18:07.727Z,191.00
2023-05-04T07:18:53.151Z,203.94
2023-05-04T07:19:37.470Z,208.91
2023-05-04T07:20:23.640Z,205.93
2023-05-04T07:21:26.250Z,222.84
2023-05-04T07:21:53.120Z,194.98
2023-05-04T07:22:37.923Z,206.92
2023-05-04T07:23:22.754Z,211.90
2023-05-04T07:24:07.936Z,203.94
2023-05-04T07:24:52.932Z,208.91
2023-05-04T07:25:38.380Z,216.87
2023-05-04T07:26:23.213Z,199.96
2023-05-04T07:27:08.348Z,218.86
2023-05-04T07:27:53.200Z,216.87
2023-05-04T07:28:38.366Z,208.91
2023-05-04T07:29:23.716Z,203.94
2023-05-04T07:30:08.467Z,198.96
2023-05-04T07:30:53.453Z,166.13
2023-05-04T07:31:38.675Z,214.88
2023-05-04T07:32:23.578Z,215.70
2023-05-04T07:33:08.657Z,221.84
2023-05-04T07:33:53.755Z,216.87
2023-05-04T07:34:44.925Z,210.90
2023-05-04T07:35:23.779Z,225.82
2023-05-04T07:36:08.924Z,213.88
2023-05-04T07:36:54.105Z,214.88
2023-05-04T07:37:38.953Z,233.78
2023-05-04T07:38:24.021Z,232.79
2023-05-04T07:39:09.090Z,225.82
2023-05-04T07:39:53.921Z,232.95
2023-05-04T07:40:38.949Z,234.94
2023-05-04T07:41:24.141Z,231.96
2023-05-04T07:42:09.065Z,226.98
2023-05-04T07:42:54.429Z,231.96
2023-05-04T07:43:39.168Z,222.84
2023-05-04T07:44:24.040Z,241.74
2023-05-04T07:45:09.641Z,231.79
2023-05-04T07:45:54.406Z,206.92
2023-05-04T07:46:39.075Z,201.95
2023-05-04T07:47:24.698Z,212.72
2023-05-04T07:48:09.921Z,208.55
2023-05-04T07:48:54.364Z,237.57
2023-05-04T07:49:39.693Z,236.57
2023-05-04T07:50:25.080Z,223.83
2023-05-04T07:51:09.532Z,218.86
2023-05-04T07:51:54.897Z,236.77
2023-05-04T07:52:39.848Z,242.73
2023-05-04T07:53:24.402Z,232.79
2023-05-04T07:54:10.067Z,203.94
2023-05-04T07:54:55.015Z,227.63
2023-05-04T07:55:40.396Z,223.65
2023-05-04T07:56:25.171Z,227.63
2023-05-04T07:57:10.298Z,204.77
2023-05-04T07:57:55.143Z,217.69
2023-05-04T07:58:40.613Z,235.58
2023-05-04T07:59:25.365Z,218.86
2023-05-04T08:00:10.390Z,220.85
2023-05-04T08:00:55.472Z,220.85
2023-05-04T08:01:41.906Z,199.96
2023-05-04T08:02:25.647Z,211.72
2023-05-04T08:03:10.805Z,211.72
2023-05-04T08:03:55.614Z,219.85
2023-05-04T08:04:40.551Z,201.95
2023-05-04T08:05:25.990Z,221.66
2023-05-04T08:06:10.971Z,200.79
2023-05-04T08:06:55.829Z,223.65
2023-05-04T08:07:40.877Z,224.65
2023-05-04T08:08:26.344Z,223.65
2023-05-04T08:09:11.175Z,231.60
2023-05-04T08:09:56.121Z,223.65
2023-05-04T08:10:40.924Z,218.68
2023-05-04T08:11:26.164Z,229.62
2023-05-04T08:12:10.936Z,218.68
2023-05-04T08:12:56.483Z,235.58
2023-05-04T08:13:41.334Z,225.64
2023-05-04T08:14:26.300Z,227.63
2023-05-04T08:15:11.447Z,217.69
2023-05-04T08:15:56.603Z,223.65
2023-05-04T08:16:41.751Z,215.70
2023-05-04T08:17:26.645Z,214.71
2023-05-04T08:18:11.600Z,199.80
2023-05-04T08:18:56.841Z,204.77
2023-05-04T08:19:41.576Z,206.75
2023-05-04T08:20:27.560Z,207.75
2023-05-04T08:21:11.862Z,213.71
2023-05-04T08:21:56.849Z,200.79
2023-05-04T08:22:42.270Z,216.69
2023-05-04T08:23:26.884Z,219.68
2023-05-04T08:24:12.072Z,223.65
2023-05-04T08:24:57.130Z,217.69
2023-05-04T08:25:42.447Z,218.68
2023-05-04T08:26:27.094Z,217.69
2023-05-04T08:27:12.261Z,212.72
2023-05-04T08:27:57.412Z,220.67
2023-05-04T08:28:42.648Z,229.62
2023-05-04T08:29:27.325Z,220.67
2023-05-04T08:30:12.472Z,206.75
2023-05-04T08:30:57.565Z,218.68
2023-05-04T08:31:42.853Z,209.74
2023-05-04T08:32:27.776Z,210.73
2023-05-04T08:33:12.939Z,220.67
2023-05-04T08:33:57.969Z,206.75
2023-05-04T08:34:43.005Z,222.66
2023-05-04T08:35:27.599Z,204.77
2023-05-04T08:36:12.992Z,229.62
2023-05-04T08:36:58.294Z,225.64
2023-05-04T08:37:43.198Z,221.66
2023-05-04T08:38:28.099Z,213.71
2023-05-04T08:39:13.268Z,212.72
2023-05-04T08:39:58.107Z,212.72
2023-05-04T08:40:43.490Z,200.79
2023-05-04T08:41:28.845Z,197.81
2023-05-04T08:42:13.733Z,218.68
2023-05-04T08:42:58.475Z,205.76
2023-05-04T08:43:43.889Z,210.73
2023-05-04T08:44:29.274Z,211.72
2023-05-04T08:45:13.719Z,210.73
2023-05-04T08:45:59.077Z,206.75
2023-05-04T08:46:44.337Z,203.77
2023-05-04T08:47:28.862Z,201.78
2023-05-04T08:48:13.961Z,217.69
2023-05-04T08:48:58.995Z,208.74
2023-05-04T08:49:44.098Z,222.66
2023-05-04T08:50:28.893Z,217.69
2023-05-04T08:51:14.134Z,225.64
2023-05-04T08:51:58.940Z,225.64
2023-05-04T08:52:44.184Z,221.66
2023-05-04T08:53:29.329Z,218.68
2023-05-04T08:54:14.709Z,224.65
2023-05-04T08:54:59.342Z,210.73
2023-05-04T08:55:44.199Z,210.73
2023-05-04T08:56:29.488Z,225.64
2023-05-04T08:57:15.103Z,223.65
2023-05-04T08:57:59.380Z,237.57
2023-05-04T08:58:44.882Z,219.68
2023-05-04T08:59:29.586Z,237.57
2023-05-04T09:00:14.745Z,134.19
2023-05-04T09:00:59.796Z,227.63
2023-05-04T09:01:44.767Z,229.62
2023-05-04T09:02:29.807Z,253.47
2023-05-04T09:03:14.868Z,232.60
2023-05-04T09:03:59.928Z,253.47
2023-05-04T09:04:45.140Z,228.62
2023-05-04T09:05:30.153Z,228.62
2023-05-04T09:06:15.418Z,230.61
2023-05-04T09:06:59.972Z,229.62
2023-05-04T09:07:45.103Z,234.59
2023-05-04T09:08:30.439Z,241.54
2023-05-04T09:09:15.376Z,233.59
2023-05-04T09:10:00.620Z,229.62
2023-05-04T09:10:45.232Z,227.63
2023-05-04T09:11:30.814Z,216.69
2023-05-04T09:12:15.697Z,231.60
2023-05-04T09:13:00.448Z,220.67
2023-05-04T09:13:45.587Z,218.68
2023-05-04T09:14:30.606Z,234.59
2023-05-04T09:15:16.339Z,223.65
2023-05-04T09:16:00.824Z,227.63
2023-05-04T09:16:45.596Z,226.63
2023-05-04T09:17:30.869Z,225.64
2023-05-04T09:18:15.999Z,211.53
2023-05-04T09:19:00.855Z,233.38
2023-05-04T09:19:45.808Z,241.32
2023-05-04T09:20:30.869Z,204.58
2023-05-04T09:21:16.244Z,236.57
2023-05-04T09:22:00.965Z,232.60